createdAt,value
2018-09-13T00:00:24.433Z,56.90
2018-09-13T00:02:52.657Z,57.10
2018-09-13T00:05:20.850Z,57.20
2018-09-13T00:07:49.059Z,57.30
2018-09-13T00:10:17.229Z,57.10
2018-09-13T00:12:45.479Z,57.00
2018-09-13T00:15:13.731Z,56.80
2018-09-13T00:17:41.934Z,56.80
2018-09-13T00:20:10.126Z,56.70
2018-09-13T00:22:38.331Z,56.80
2018-09-13T00:25:06.570Z,56.80
2018-09-13T00:27:34.780Z,56.90
2018-09-13T00:30:02.988Z,57.60
2018-09-13T00:32:31.197Z,57.20
2018-09-13T00:34:59.406Z,57.30
2018-09-13T00:37:27.625Z,57.50
2018-09-13T00:40:02.162Z,57.70
2018-09-13T00:42:30.385Z,57.90
2018-09-13T00:44:58.560Z,57.90
2018-09-13T00:47:26.761Z,57.80
2018-09-13T00:49:54.938Z,58.10
2018-09-13T00:52:23.149Z,58.00
2018-09-13T00:54:51.350Z,57.90
2018-09-13T00:57:19.534Z,58.00
2018-09-13T00:59:47.736Z,57.90
2018-09-13T01:02:15.954Z,58.00
2018-09-13T01:04:44.145Z,57.80
2018-09-13T01:07:12.341Z,57.70
2018-09-13T01:09:40.924Z,57.80
2018-09-13T01:12:09.117Z,57.70
2018-09-13T01:14:37.390Z,57.30
2018-09-13T01:17:12.321Z,56.90
2018-09-13T01:19:40.613Z,57.20
2018-09-13T01:22:08.813Z,58.00
2018-09-13T01:24:37.162Z,58.60
2018-09-13T01:27:05.372Z,58.50
2018-09-13T01:29:33.602Z,58.40
2018-09-13T01:32:01.808Z,58.40
2018-09-13T01:34:30.028Z,58.20
2018-09-13T01:36:58.265Z,58.20
2018-09-13T01:39:26.523Z,58.50
2018-09-13T01:41:54.763Z,58.80
2018-09-13T01:44:22.984Z,58.70
2018-09-13T01:46:51.161Z,59.30
2018-09-13T01:49:19.382Z,59.50
2018-09-13T01:51:47.617Z,60.10
2018-09-13T01:54:15.911Z,59.10
2018-09-13T01:56:44.105Z,58.40
2018-09-13T01:59:12.313Z,58.10
2018-09-13T02:01:40.505Z,57.50
2018-09-13T02:04:08.716Z,57.10
2018-09-13T02:06:37.554Z,56.90
2018-09-13T02:09:07.942Z,56.80
2018-09-13T02:11:36.138Z,56.40
2018-09-13T02:14:04.325Z,56.10
2018-09-13T02:16:32.538Z,56.90
2018-09-13T02:19:00.775Z,56.50
2018-09-13T02:21:28.999Z,56.70
2018-09-13T02:23:57.210Z,55.70
2018-09-13T02:26:25.422Z,55.10
2018-09-13T02:28:53.674Z,54.30
2018-09-13T02:31:21.986Z,53.80
2018-09-13T02:33:50.227Z,53.20
2018-09-13T02:36:18.418Z,52.70
2018-09-13T02:38:46.678Z,51.80
2018-09-13T02:41:14.901Z,51.40
2018-09-13T02:43:43.126Z,50.90
2018-09-13T02:46:11.349Z,50.60
2018-09-13T02:48:39.607Z,50.20
2018-09-13T02:51:07.826Z,49.80
2018-09-13T02:53:36.075Z,49.80
2018-09-13T02:56:04.292Z,49.90
2018-09-13T02:58:32.486Z,50.00
2018-09-13T03:01:00.741Z,50.10
2018-09-13T03:03:28.992Z,50.20
2018-09-13T03:05:57.532Z,51.00
2018-09-13T03:08:25.791Z,51.50
2018-09-13T03:10:53.969Z,51.80
2018-09-13T03:13:22.194Z,52.10
2018-09-13T03:15:50.429Z,52.50
2018-09-13T03:18:18.632Z,53.00
2018-09-13T03:20:46.847Z,53.30
2018-09-13T03:23:15.087Z,53.50
2018-09-13T03:25:43.307Z,53.40
2018-09-13T03:28:11.617Z,53.50
2018-09-13T03:30:39.856Z,53.70
2018-09-13T03:33:08.287Z,53.70
2018-09-13T03:35:36.573Z,53.80
2018-09-13T03:38:05.001Z,53.70
2018-09-13T03:40:33.205Z,53.70
2018-09-13T03:43:08.049Z,53.60
2018-09-13T03:45:36.242Z,53.20
2018-09-13T03:48:04.434Z,53.20
2018-09-13T03:50:32.681Z,53.30
2018-09-13T03:53:00.896Z,53.30
2018-09-13T03:55:29.165Z,54.40
2018-09-13T03:57:57.373Z,54.90
2018-09-13T04:00:25.612Z,55.40
2018-09-13T04:02:53.802Z,56.00
2018-09-13T04:05:21.982Z,56.00
2018-09-13T04:07:50.511Z,55.60
2018-09-13T04:10:18.722Z,56.50
2018-09-13T04:12:47.773Z,57.00
2018-09-13T04:15:16.009Z,57.80
2018-09-13T04:17:44.202Z,58.10
2018-09-13T04:20:12.522Z,57.80
2018-09-13T04:22:40.805Z,57.80
2018-09-13T04:25:08.933Z,58.10
2018-09-13T04:27:37.137Z,58.50
2018-09-13T04:30:05.453Z,58.30
2018-09-13T04:32:36.730Z,58.60
2018-09-13T04:35:05.022Z,59.60
2018-09-13T04:37:33.277Z,59.70
2018-09-13T04:40:01.482Z,60.40
2018-09-13T04:42:29.761Z,60.10
2018-09-13T04:44:57.981Z,60.50
2018-09-13T04:47:26.307Z,60.20
2018-09-13T04:49:54.521Z,59.90
2018-09-13T04:52:22.915Z,59.90
2018-09-13T04:54:51.145Z,59.70
2018-09-13T04:57:19.362Z,59.60
2018-09-13T04:59:47.586Z,59.30
2018-09-13T05:02:15.823Z,58.70
2018-09-13T05:04:44.119Z,59.00
2018-09-13T05:07:13.027Z,59.70
2018-09-13T05:09:41.641Z,58.70
2018-09-13T05:12:09.825Z,58.70
2018-09-13T05:14:38.092Z,58.50
2018-09-13T05:17:06.337Z,58.40
2018-09-13T05:19:34.609Z,58.10
2018-09-13T05:22:02.819Z,58.30
2018-09-13T05:24:31.150Z,57.70
2018-09-13T05:26:59.948Z,57.40
2018-09-13T05:29:28.157Z,57.40
2018-09-13T05:31:56.434Z,57.50
2018-09-13T05:34:24.649Z,57.50
2018-09-13T05:36:52.875Z,57.50
2018-09-13T05:39:21.141Z,58.00
2018-09-13T05:41:49.506Z,58.80
2018-09-13T05:44:17.712Z,58.50
2018-09-13T05:46:45.921Z,59.10
2018-09-13T05:49:14.142Z,60.00
2018-09-13T05:51:42.342Z,59.40
2018-09-13T05:54:10.545Z,59.70
2018-09-13T05:56:38.797Z,60.40
2018-09-13T05:59:07.023Z,60.50
2018-09-13T06:01:35.266Z,60.20
2018-09-13T06:04:03.483Z,60.00
2018-09-13T06:06:31.697Z,60.00
2018-09-13T06:08:59.988Z,60.20
2018-09-13T06:11:28.261Z,59.90
2018-09-13T06:13:56.858Z,59.80
2018-09-13T06:16:25.119Z,59.50
2018-09-13T06:18:53.333Z,59.70
2018-09-13T06:21:21.578Z,59.30
2018-09-13T06:23:49.859Z,59.30
2018-09-13T06:26:18.145Z,58.90
2018-09-13T06:28:46.370Z,58.90
2018-09-13T06:31:14.639Z,59.00
2018-09-13T06:33:42.886Z,58.90
2018-09-13T06:36:11.145Z,58.90
2018-09-13T06:38:39.484Z,58.60
2018-09-13T06:41:07.722Z,58.70
2018-09-13T06:43:35.949Z,58.60
2018-09-13T06:46:04.133Z,58.10
2018-09-13T06:48:32.390Z,58.30
2018-09-13T06:51:00.570Z,58.30
2018-09-13T06:53:28.857Z,58.30
2018-09-13T06:55:57.104Z,58.20
2018-09-13T06:58:25.365Z,57.80
2018-09-13T07:00:53.612Z,57.90
2018-09-13T07:03:21.791Z,58.10
2018-09-13T07:05:50.008Z,57.90
2018-09-13T07:08:18.249Z,57.60
2018-09-13T07:10:46.565Z,57.90
2018-09-13T07:13:14.821Z,57.90
2018-09-13T07:15:43.093Z,57.40
2018-09-13T07:18:11.293Z,57.70
2018-09-13T07:20:39.521Z,57.50
2018-09-13T07:23:07.731Z,57.00
2018-09-13T07:25:35.921Z,57.20
2018-09-13T07:28:04.101Z,56.70
2018-09-13T07:30:32.293Z,56.80
2018-09-13T07:33:00.552Z,56.80
2018-09-13T07:35:28.764Z,56.20
2018-09-13T07:37:57.005Z,56.40
2018-09-13T07:40:25.183Z,56.20
2018-09-13T07:42:53.449Z,55.50
2018-09-13T07:45:21.580Z,55.00
2018-09-13T07:47:49.791Z,55.10
2018-09-13T07:50:18.017Z,54.80
2018-09-13T07:52:46.246Z,54.60
2018-09-13T07:55:14.581Z,54.40
2018-09-13T07:57:42.798Z,54.10
2018-09-13T08:00:11.015Z,53.10
2018-09-13T08:02:39.194Z,53.30
2018-09-13T08:05:07.442Z,51.90
2018-09-13T08:07:35.648Z,52.10
2018-09-13T08:10:03.931Z,51.50
2018-09-13T08:12:32.160Z,51.40
2018-09-13T08:15:00.507Z,49.90
2018-09-13T08:17:28.666Z,49.10
2018-09-13T08:19:56.877Z,48.80
2018-09-13T08:22:25.351Z,47.70
2018-09-13T08:24:53.626Z,47.10
2018-09-13T08:27:21.880Z,47.10
2018-09-13T08:29:50.072Z,46.90
2018-09-13T08:32:18.298Z,45.30
2018-09-13T08:34:46.608Z,45.50
2018-09-13T08:37:14.749Z,45.40
2018-09-13T08:39:42.941Z,45.40
2018-09-13T08:42:11.254Z,45.90
2018-09-13T08:44:39.453Z,46.10
2018-09-13T08:47:07.692Z,45.20
2018-09-13T08:49:35.920Z,45.20
2018-09-13T08:52:04.226Z,44.70
2018-09-13T08:54:32.429Z,44.20
2018-09-13T08:57:00.649Z,43.60
2018-09-13T08:59:29.203Z,42.00
2018-09-13T09:01:57.402Z,42.50
2018-09-13T09:04:25.642Z,41.30
2018-09-13T09:06:53.834Z,41.10
2018-09-13T09:09:22.072Z,41.80
2018-09-13T09:11:50.332Z,40.00
2018-09-13T09:14:18.521Z,40.30
2018-09-13T09:16:46.727Z,39.10
2018-09-13T09:19:14.990Z,38.30
2018-09-13T09:21:43.217Z,37.60
2018-09-13T09:24:11.465Z,36.70
2018-09-13T09:26:39.604Z,36.30
2018-09-13T09:29:07.856Z,35.70
2018-09-13T09:31:36.047Z,35.30
2018-09-13T09:34:04.237Z,34.90
2018-09-13T09:36:32.512Z,35.00
2018-09-13T09:39:00.681Z,35.00
2018-09-13T09:41:28.877Z,34.20
2018-09-13T09:43:57.115Z,33.60
2018-09-13T09:46:25.328Z,33.30
2018-09-13T09:48:53.535Z,32.30
2018-09-13T09:51:21.747Z,32.20
2018-09-13T09:53:49.997Z,32.00
2018-09-13T09:56:18.280Z,31.60
2018-09-13T09:58:46.396Z,31.10
2018-09-13T10:01:19.967Z,30.80
2018-09-13T10:03:48.281Z,31.40
2018-09-13T10:06:16.496Z,31.60
2018-09-13T10:08:44.719Z,31.60
2018-09-13T10:11:12.903Z,30.90
2018-09-13T10:13:41.205Z,31.10
2018-09-13T10:17:17.634Z,31.60
2018-09-13T10:19:51.269Z,30.90
2018-09-13T10:22:24.700Z,30.20
2018-09-13T10:24:58.357Z,30.00
2018-09-13T10:27:31.949Z,30.00
2018-09-13T10:30:05.634Z,30.10
2018-09-13T10:32:39.286Z,30.80
2018-09-13T10:35:12.933Z,29.70
2018-09-13T10:37:46.637Z,29.60
2018-09-13T10:40:20.477Z,29.90
2018-09-13T10:42:54.178Z,30.20
2018-09-13T10:45:27.796Z,30.00
2018-09-13T10:48:01.475Z,29.90
2018-09-13T10:50:33.956Z,30.50
2018-09-13T10:53:06.305Z,30.70
2018-09-13T10:55:34.594Z,31.10
2018-09-13T10:58:02.815Z,30.00
2018-09-13T11:00:31.030Z,31.30
2018-09-13T11:02:59.305Z,31.80
2018-09-13T11:05:27.523Z,32.60
2018-09-13T11:07:56.633Z,32.90
2018-09-13T11:10:24.922Z,33.20
2018-09-13T11:12:55.157Z,32.30
2018-09-13T11:15:28.889Z,33.10
2018-09-13T11:17:57.133Z,33.20
2018-09-13T11:20:25.344Z,33.20
2018-09-13T11:22:53.581Z,32.50
2018-09-13T11:25:22.316Z,32.20
2018-09-13T11:27:50.557Z,32.00
2018-09-13T11:30:18.818Z,32.00
2018-09-13T11:32:47.011Z,31.80
2018-09-13T11:35:15.270Z,31.50
2018-09-13T11:37:43.729Z,31.30
2018-09-13T11:40:12.754Z,30.50
2018-09-13T11:42:41.436Z,30.70
2018-09-13T11:45:10.024Z,31.00
2018-09-13T11:47:39.135Z,30.90
2018-09-13T11:50:07.353Z,30.30
2018-09-13T11:52:35.605Z,29.90
2018-09-13T11:55:03.950Z,29.80
2018-09-13T11:57:32.233Z,29.50
2018-09-13T12:00:00.537Z,29.30
2018-09-13T12:02:29.599Z,29.50
2018-09-13T12:04:57.774Z,29.50
2018-09-13T12:07:26.053Z,29.30
2018-09-13T12:09:54.499Z,29.40
2018-09-13T12:12:22.899Z,29.80
2018-09-13T12:14:51.169Z,29.20
2018-09-13T12:17:19.465Z,29.60
2018-09-13T12:19:47.722Z,28.90
2018-09-13T12:22:16.080Z,29.10
2018-09-13T12:24:44.285Z,29.30
2018-09-13T12:27:12.520Z,29.20
2018-09-13T12:29:40.788Z,29.70
2018-09-13T12:32:09.023Z,28.80
2018-09-13T12:34:37.279Z,29.00
2018-09-13T12:37:05.514Z,29.10
2018-09-13T12:39:33.778Z,29.40
2018-09-13T12:42:02.005Z,29.60
2018-09-13T12:44:30.220Z,29.10
2018-09-13T12:46:58.461Z,29.20
2018-09-13T12:49:26.769Z,29.20
2018-09-13T12:51:55.083Z,29.30
2018-09-13T12:54:23.305Z,29.50
2018-09-13T12:56:52.136Z,29.80
2018-09-13T12:59:20.394Z,31.00
2018-09-13T13:01:48.708Z,32.50
2018-09-13T13:04:17.074Z,33.30
2018-09-13T13:06:45.630Z,35.10
2018-09-13T13:09:13.766Z,36.30
2018-09-13T13:11:42.036Z,36.00
2018-09-13T13:14:10.371Z,37.00
2018-09-13T13:16:38.725Z,36.80
2018-09-13T13:19:07.131Z,36.70
2018-09-13T13:21:35.816Z,37.60
2018-09-13T13:24:04.156Z,38.80
2018-09-13T13:26:32.353Z,39.50
2018-09-13T13:29:00.609Z,39.60
2018-09-13T13:31:29.058Z,40.40
2018-09-13T13:33:57.314Z,42.00
2018-09-13T13:36:25.680Z,43.50
2018-09-13T13:38:53.952Z,42.70
2018-09-13T13:41:22.229Z,44.00
2018-09-13T13:43:50.543Z,45.20
2018-09-13T13:46:18.800Z,44.20
2018-09-13T13:48:47.016Z,43.90
2018-09-13T13:51:15.239Z,44.40
2018-09-13T13:53:43.564Z,45.60
2018-09-13T13:56:12.292Z,46.20
2018-09-13T13:58:40.581Z,46.70
2018-09-13T14:01:08.786Z,46.90
2018-09-13T14:03:37.308Z,48.10
2018-09-13T14:06:05.580Z,48.70
2018-09-13T14:08:33.802Z,48.90
2018-09-13T14:11:02.125Z,49.20
2018-09-13T14:13:30.593Z,49.60
2018-09-13T14:15:58.987Z,49.80
2018-09-13T14:18:27.261Z,51.50
2018-09-13T14:20:55.621Z,52.20
2018-09-13T14:23:23.798Z,52.60
2018-09-13T14:25:51.979Z,53.70
2018-09-13T14:28:20.239Z,53.70
2018-09-13T14:30:48.450Z,53.90
2018-09-13T14:33:16.721Z,54.40
2018-09-13T14:35:45.022Z,55.50
2018-09-13T14:38:13.318Z,56.80
2018-09-13T14:40:41.630Z,57.70
2018-09-13T14:43:10.029Z,58.70
2018-09-13T14:45:38.248Z,58.80
2018-09-13T14:48:06.265Z,60.30
2018-09-13T14:50:34.545Z,60.30
2018-09-13T14:53:02.878Z,61.90
2018-09-13T14:55:31.165Z,63.50
2018-09-13T14:57:59.510Z,64.00
2018-09-13T15:00:27.745Z,65.40
2018-09-13T15:02:56.125Z,64.70
2018-09-13T15:05:24.409Z,62.80
2018-09-13T15:07:52.647Z,63.50
2018-09-13T15:10:20.991Z,61.70
2018-09-13T15:12:49.374Z,60.70
2018-09-13T15:15:18.246Z,60.90
2018-09-13T15:17:46.657Z,61.10
2018-09-13T15:20:15.152Z,62.30
2018-09-13T15:22:43.517Z,61.00
2018-09-13T15:25:12.509Z,61.50
2018-09-13T15:27:40.873Z,60.30
2018-09-13T15:30:09.142Z,59.60
2018-09-13T15:32:37.379Z,60.60
2018-09-13T15:35:05.722Z,60.60
2018-09-13T15:37:34.035Z,61.80
2018-09-13T15:40:02.278Z,63.90
2018-09-13T15:42:30.889Z,63.90
2018-09-13T15:44:59.249Z,63.40
2018-09-13T15:47:27.506Z,64.90
2018-09-13T15:49:56.153Z,66.40
2018-09-13T15:52:24.399Z,67.10
2018-09-13T15:54:52.658Z,66.30
2018-09-13T15:57:20.901Z,65.60
2018-09-13T15:59:49.157Z,67.10
2018-09-13T16:02:18.196Z,68.10
2018-09-13T16:04:46.548Z,69.10
2018-09-13T16:07:14.757Z,69.50
2018-09-13T16:09:43.133Z,68.40
2018-09-13T16:12:11.455Z,69.50
2018-09-13T16:14:39.673Z,70.10
2018-09-13T16:17:07.975Z,71.00
2018-09-13T16:19:36.209Z,71.60
2018-09-13T16:22:04.430Z,69.90
2018-09-13T16:24:32.689Z,70.50
2018-09-13T16:27:01.087Z,71.10
2018-09-13T16:29:29.355Z,70.50
2018-09-13T16:31:57.752Z,70.30
2018-09-13T16:34:26.180Z,70.40
2018-09-13T16:37:04.717Z,70.60
2018-09-13T16:39:38.219Z,68.60
2018-09-13T16:42:12.506Z,67.50
2018-09-13T16:44:46.375Z,68.10
2018-09-13T16:47:25.744Z,68.10
2018-09-13T16:49:53.921Z,68.10
2018-09-13T16:52:22.195Z,67.30
2018-09-13T16:54:50.581Z,67.70
2018-09-13T16:57:18.853Z,68.50
2018-09-13T16:59:47.119Z,69.30
2018-09-13T17:02:15.353Z,69.10
2018-09-13T17:04:43.610Z,69.00
2018-09-13T17:07:11.906Z,70.10
2018-09-13T17:09:40.179Z,70.40
2018-09-13T17:12:09.140Z,70.10
2018-09-13T17:14:37.410Z,70.60
2018-09-13T17:17:05.693Z,69.90
2018-09-13T17:19:33.985Z,70.70
2018-09-13T17:22:02.846Z,70.50
2018-09-13T17:24:31.150Z,70.60
2018-09-13T17:26:59.537Z,69.70
2018-09-13T17:29:27.766Z,69.40
2018-09-13T17:31:55.987Z,68.60
2018-09-13T17:34:24.246Z,69.30
2018-09-13T17:36:52.597Z,68.90
2018-09-13T17:39:20.818Z,69.20
2018-09-13T17:41:49.173Z,70.00
2018-09-13T17:44:17.584Z,69.40
2018-09-13T17:46:45.878Z,69.60
2018-09-13T17:49:14.147Z,70.10
2018-09-13T17:51:42.405Z,70.70
2018-09-13T17:54:10.809Z,71.20
2018-09-13T17:56:39.178Z,71.40
2018-09-13T17:59:07.520Z,71.60
2018-09-13T18:01:36.853Z,71.60
2018-09-13T18:04:05.310Z,72.00
2018-09-13T18:06:33.805Z,72.00
2018-09-13T18:09:02.058Z,72.00
2018-09-13T18:11:30.410Z,72.10
2018-09-13T18:13:58.953Z,72.10
2018-09-13T18:16:27.409Z,71.90
2018-09-13T18:18:56.682Z,72.80
2018-09-13T18:21:25.173Z,73.10
2018-09-13T18:23:53.651Z,73.30
2018-09-13T18:26:22.137Z,73.20
2018-09-13T18:28:50.643Z,72.80
2018-09-13T18:31:18.893Z,72.60
2018-09-13T18:33:47.487Z,72.60
2018-09-13T18:36:15.972Z,71.20
2018-09-13T18:38:44.193Z,71.10
2018-09-13T18:41:12.407Z,71.00
2018-09-13T18:43:40.766Z,71.00
2018-09-13T18:46:09.102Z,70.30
2018-09-13T18:48:37.322Z,70.40
2018-09-13T18:51:05.567Z,70.10
2018-09-13T18:53:33.814Z,69.90
2018-09-13T18:56:02.143Z,69.90
2018-09-13T18:58:30.365Z,69.80
2018-09-13T19:00:59.099Z,69.70
2018-09-13T19:03:27.314Z,70.10
2018-09-13T19:05:55.552Z,70.50
2018-09-13T19:08:23.913Z,71.10
2018-09-13T19:10:52.240Z,72.00
2018-09-13T19:13:20.425Z,73.20
2018-09-13T19:15:48.810Z,73.50
2018-09-13T19:18:17.081Z,73.30
2018-09-13T19:20:47.521Z,74.00
2018-09-13T19:23:16.226Z,73.80
2018-09-13T19:25:44.533Z,73.60
2018-09-13T19:28:12.858Z,74.30
2018-09-13T19:30:41.100Z,74.90
2018-09-13T19:33:09.301Z,75.40
2018-09-13T19:35:38.296Z,75.90
2018-09-13T19:38:06.521Z,76.30
2018-09-13T19:40:34.861Z,76.40
2018-09-13T19:43:03.107Z,76.90
2018-09-13T19:45:31.330Z,76.90
2018-09-13T19:47:59.566Z,76.70
2018-09-13T19:50:27.838Z,76.50
2018-09-13T19:52:56.035Z,75.70
2018-09-13T19:55:24.285Z,75.60
2018-09-13T19:57:52.610Z,75.40
2018-09-13T20:00:20.857Z,75.10
2018-09-13T20:02:49.262Z,74.60
2018-09-13T20:05:17.564Z,74.00
2018-09-13T20:07:45.771Z,73.80
2018-09-13T20:10:14.013Z,73.50
2018-09-13T20:12:42.433Z,72.60
2018-09-13T20:15:10.674Z,72.40
2018-09-13T20:17:38.890Z,72.30
2018-09-13T20:20:07.166Z,73.00
2018-09-13T20:22:35.401Z,71.60
2018-09-13T20:25:03.676Z,70.20
2018-09-13T20:27:31.960Z,70.10
2018-09-13T20:30:00.166Z,69.40
2018-09-13T20:32:28.459Z,69.80
2018-09-13T20:34:56.821Z,66.80
2018-09-13T20:37:25.053Z,66.30
2018-09-13T20:39:53.294Z,66.50
2018-09-13T20:42:21.548Z,66.70
2018-09-13T20:44:49.809Z,65.80
2018-09-13T20:47:18.222Z,63.40
2018-09-13T20:49:46.476Z,62.60
2018-09-13T20:52:15.011Z,62.10
2018-09-13T20:54:43.259Z,62.20
2018-09-13T20:57:11.515Z,62.60
2018-09-13T20:59:39.731Z,61.70
2018-09-13T21:02:08.390Z,60.00
2018-09-13T21:04:36.653Z,59.20
2018-09-13T21:07:04.981Z,59.10
2018-09-13T21:09:33.286Z,58.10
2018-09-13T21:12:01.526Z,57.60
2018-09-13T21:14:30.743Z,57.70
2018-09-13T21:16:59.069Z,57.40
2018-09-13T21:19:27.273Z,58.00
2018-09-13T21:21:55.515Z,57.40
2018-09-13T21:24:24.000Z,57.40
2018-09-13T21:26:52.200Z,56.80
2018-09-13T21:29:20.491Z,56.60
2018-09-13T21:31:48.673Z,56.30
2018-09-13T21:34:16.885Z,56.70
2018-09-13T21:36:45.125Z,56.10
2018-09-13T21:39:13.649Z,56.40
2018-09-13T21:41:41.913Z,56.20
2018-09-13T21:44:10.521Z,56.30
2018-09-13T21:46:38.745Z,56.00
2018-09-13T21:49:06.962Z,55.90
2018-09-13T21:51:35.242Z,56.50
2018-09-13T21:54:03.489Z,56.10
2018-09-13T21:56:31.737Z,56.30
2018-09-13T21:59:00.131Z,56.50
2018-09-13T22:01:28.633Z,56.40
2018-09-13T22:03:57.101Z,56.20
2018-09-13T22:06:25.461Z,56.60
2018-09-13T22:08:53.726Z,56.90
2018-09-13T22:11:22.011Z,57.50
2018-09-13T22:13:50.216Z,57.80
2018-09-13T22:16:18.461Z,57.70
2018-09-13T22:18:46.711Z,58.80
2018-09-13T22:21:15.033Z,59.90
2018-09-13T22:23:43.290Z,59.80
2018-09-13T22:26:11.525Z,61.00
2018-09-13T22:28:39.757Z,61.40
2018-09-13T22:31:07.966Z,62.00
2018-09-13T22:33:36.185Z,64.10
2018-09-13T22:36:04.420Z,64.00
2018-09-13T22:38:32.686Z,65.30
2018-09-13T22:41:00.925Z,65.90
2018-09-13T22:43:33.605Z,66.80
2018-09-13T22:46:02.020Z,67.20
2018-09-13T22:48:30.262Z,68.30
2018-09-13T22:50:58.469Z,68.90
2018-09-13T22:53:26.717Z,70.30
2018-09-13T22:55:54.903Z,71.40
2018-09-13T22:58:23.122Z,71.80
2018-09-13T23:00:55.601Z,73.20
2018-09-13T23:03:23.813Z,74.90
2018-09-13T23:05:52.101Z,75.70
2018-09-13T23:08:20.366Z,76.90
2018-09-13T23:10:48.655Z,77.10
2018-09-13T23:13:16.911Z,77.20
2018-09-13T23:15:45.256Z,77.80
2018-09-13T23:18:13.504Z,78.50
2018-09-13T23:20:42.053Z,77.60
2018-09-13T23:23:10.324Z,77.90
2018-09-13T23:25:38.913Z,78.70
2018-09-13T23:28:07.152Z,77.20
2018-09-13T23:30:35.437Z,76.80
2018-09-13T23:33:03.761Z,78.20
2018-09-13T23:35:31.937Z,81.10
2018-09-13T23:38:00.213Z,80.90
2018-09-13T23:40:28.746Z,80.70
2018-09-13T23:42:57.080Z,82.30
2018-09-13T23:45:25.283Z,80.10
2018-09-13T23:47:53.477Z,79.30
2018-09-13T23:50:21.721Z,78.70
2018-09-13T23:52:49.920Z,80.10
2018-09-13T23:55:18.191Z,81.00
2018-09-13T23:57:46.450Z,83.90
